createdAt,value
2023-01-11T00:00:43.686Z,4.04
2023-01-11T00:01:43.579Z,4.11
2023-01-11T00:02:43.594Z,4.08
2023-01-11T00:03:43.535Z,4.06
2023-01-11T00:04:43.579Z,4.11
2023-01-11T00:05:43.721Z,4.06
2023-01-11T00:06:43.529Z,4.13
2023-01-11T00:07:43.492Z,4.13
2023-01-11T00:08:43.477Z,4.13
2023-01-11T00:09:43.435Z,4.10
2023-01-11T00:10:43.444Z,4.08
2023-01-11T00:11:43.391Z,4.02
2023-01-11T00:12:43.418Z,4.04
2023-01-11T00:13:43.373Z,4.16
2023-01-11T00:14:43.382Z,4.06
2023-01-11T00:15:43.372Z,4.16
2023-01-11T00:16:43.321Z,4.16
2023-01-11T00:17:43.350Z,4.16
2023-01-11T00:18:43.278Z,4.14
2023-01-11T00:19:43.301Z,4.06
2023-01-11T00:20:43.317Z,4.16
2023-01-11T00:21:43.237Z,4.11
2023-01-11T00:22:43.245Z,4.13
2023-01-11T00:23:43.185Z,4.17
2023-01-11T00:24:43.200Z,4.14
2023-01-11T00:25:43.169Z,4.14
2023-01-11T00:26:43.139Z,4.16
2023-01-11T00:27:43.145Z,4.13
2023-01-11T00:28:43.094Z,4.18
2023-01-11T00:29:43.131Z,4.17
2023-01-11T00:30:43.078Z,4.17
2023-01-11T00:31:43.054Z,4.11
2023-01-11T00:32:43.072Z,4.14
2023-01-11T00:33:43.025Z,4.10
2023-01-11T00:34:43.029Z,4.16
2023-01-11T00:35:43.070Z,4.16
2023-01-11T00:36:42.987Z,4.10
2023-01-11T00:37:42.974Z,4.16
2023-01-11T00:38:42.944Z,4.18
2023-01-11T00:39:42.923Z,4.16
2023-01-11T00:40:42.913Z,4.21
2023-01-11T00:41:42.887Z,4.17
2023-01-11T00:42:42.898Z,4.16
2023-01-11T00:43:42.858Z,4.26
2023-01-11T00:44:42.844Z,4.21
2023-01-11T00:45:42.825Z,4.25
2023-01-11T00:46:42.796Z,4.29
2023-01-11T00:47:42.825Z,4.21
2023-01-11T00:48:42.773Z,4.25
2023-01-11T00:49:42.757Z,4.17
2023-01-11T00:50:42.750Z,4.16
2023-01-11T00:51:42.716Z,4.17
2023-01-11T00:52:42.738Z,4.24
2023-01-11T00:53:42.675Z,4.31
2023-01-11T00:54:42.663Z,4.25
2023-01-11T00:55:42.636Z,4.18
2023-01-11T00:56:42.625Z,4.31
2023-01-11T00:57:42.661Z,4.32
2023-01-11T00:58:42.587Z,4.29
2023-01-11T00:59:42.592Z,4.24
2023-01-11T01:00:42.577Z,4.29
2023-01-11T01:01:42.645Z,4.38
2023-01-11T01:02:42.621Z,4.31
2023-01-11T01:03:42.548Z,4.42
2023-01-11T01:04:42.585Z,4.35
2023-01-11T01:05:42.483Z,4.39
2023-01-11T01:06:42.500Z,4.31
2023-01-11T01:07:42.481Z,4.36
2023-01-11T01:08:42.414Z,4.38
2023-01-11T01:09:42.509Z,4.39
2023-01-11T01:10:42.408Z,4.42
2023-01-11T01:11:42.387Z,4.43
2023-01-11T01:12:42.379Z,4.44
2023-01-11T01:13:42.350Z,4.54
2023-01-11T01:14:42.332Z,4.50
2023-01-11T01:15:42.343Z,4.42
2023-01-11T01:16:42.309Z,4.39
2023-01-11T01:17:42.306Z,4.44
2023-01-11T01:18:42.275Z,4.53
2023-01-11T01:19:42.242Z,4.50
2023-01-11T01:20:42.225Z,4.50
2023-01-11T01:21:42.188Z,4.53
2023-01-11T01:22:42.220Z,4.49
2023-01-11T01:23:42.161Z,4.44
2023-01-11T01:24:42.165Z,4.46
2023-01-11T01:25:42.133Z,4.62
2023-01-11T01:26:42.105Z,4.57
2023-01-11T01:27:42.148Z,4.49
2023-01-11T01:28:42.085Z,4.54
2023-01-11T01:29:42.051Z,4.50
2023-01-11T01:30:42.062Z,4.56
2023-01-11T01:31:42.024Z,4.47
2023-01-11T01:32:42.077Z,4.49
2023-01-11T01:33:41.995Z,4.53
2023-01-11T01:34:41.975Z,4.53
2023-01-11T01:35:41.964Z,4.50
2023-01-11T01:36:41.973Z,4.53
2023-01-11T01:37:41.950Z,4.59
2023-01-11T01:38:41.899Z,4.57
2023-01-11T01:39:41.899Z,4.51
2023-01-11T01:40:41.866Z,4.61
2023-01-11T01:41:41.864Z,4.59
2023-01-11T01:42:41.878Z,4.61
2023-01-11T01:43:41.821Z,4.54
2023-01-11T01:44:41.810Z,4.64
2023-01-11T01:45:41.785Z,4.56
2023-01-11T01:46:41.801Z,4.67
2023-01-11T01:47:41.788Z,4.53
2023-01-11T01:48:41.817Z,4.57
2023-01-11T01:49:41.744Z,4.62
2023-01-11T01:50:41.701Z,4.59
2023-01-11T01:51:41.688Z,4.61
2023-01-11T01:52:42.702Z,4.62
2023-01-11T01:53:41.645Z,4.61
2023-01-11T01:54:41.656Z,4.62
2023-01-11T01:55:41.600Z,4.50
2023-01-11T01:56:41.603Z,4.62
2023-01-11T01:57:41.603Z,4.64
2023-01-11T01:58:41.583Z,4.62
2023-01-11T01:59:41.550Z,4.59
2023-01-11T02:00:41.528Z,4.57
2023-01-11T02:01:41.533Z,4.61
2023-01-11T02:02:41.580Z,4.59
2023-01-11T02:03:41.531Z,4.57
2023-01-11T02:04:41.453Z,4.54
2023-01-11T02:05:41.446Z,4.67
2023-01-11T02:06:41.464Z,4.69
2023-01-11T02:07:41.435Z,4.71
2023-01-11T02:08:41.383Z,4.61
2023-01-11T02:09:41.375Z,4.65
2023-01-11T02:10:41.354Z,4.59
2023-01-11T02:11:41.351Z,4.64
2023-01-11T02:12:41.403Z,4.64
2023-01-11T02:13:41.356Z,4.64
2023-01-11T02:14:42.306Z,4.64
2023-01-11T02:15:41.331Z,4.54
2023-01-11T02:16:41.247Z,4.57
2023-01-11T02:17:41.284Z,4.61
2023-01-11T02:18:41.218Z,4.67
2023-01-11T02:19:41.194Z,4.61
2023-01-11T02:20:41.184Z,4.56
2023-01-11T02:21:41.163Z,4.61
2023-01-11T02:22:41.184Z,4.67
2023-01-11T02:23:41.133Z,4.56
2023-01-11T02:24:41.119Z,4.71
2023-01-11T02:25:41.108Z,4.67
2023-01-11T02:26:41.082Z,4.57
2023-01-11T02:27:41.096Z,4.68
2023-01-11T02:28:41.081Z,4.54
2023-01-11T02:29:41.030Z,4.54
2023-01-11T02:30:41.010Z,4.57
2023-01-11T02:31:41.078Z,4.57
2023-01-11T02:32:41.022Z,4.61
2023-01-11T02:33:40.955Z,4.65
2023-01-11T02:34:40.944Z,4.62
2023-01-11T02:35:40.923Z,4.62
2023-01-11T02:36:40.912Z,4.71
2023-01-11T02:37:40.954Z,4.65
2023-01-11T02:38:40.875Z,4.64
2023-01-11T02:39:40.893Z,4.64
2023-01-11T02:40:40.846Z,4.72
2023-01-11T02:41:40.835Z,4.75
2023-01-11T02:42:40.843Z,4.80
2023-01-11T02:43:40.826Z,4.71
2023-01-11T02:44:40.773Z,4.68
2023-01-11T02:45:40.764Z,4.71
2023-01-11T02:46:40.747Z,4.71
2023-01-11T02:47:41.748Z,4.62
2023-01-11T02:48:40.703Z,4.67
2023-01-11T02:49:40.689Z,4.68
2023-01-11T02:50:40.673Z,4.68
2023-01-11T02:51:40.656Z,4.67
2023-01-11T02:52:40.699Z,4.68
2023-01-11T02:53:40.627Z,4.67
2023-01-11T02:54:40.618Z,4.69
2023-01-11T02:55:40.587Z,4.67
2023-01-11T02:56:40.584Z,4.75
2023-01-11T02:57:40.592Z,4.72
2023-01-11T02:58:40.545Z,4.72
2023-01-11T02:59:40.540Z,4.75
2023-01-11T03:00:40.522Z,4.79
2023-01-11T03:01:40.582Z,4.74
2023-01-11T03:02:40.544Z,4.74
2023-01-11T03:03:40.497Z,4.72
2023-01-11T03:04:40.470Z,4.72
2023-01-11T03:05:40.429Z,4.61
2023-01-11T03:06:40.414Z,4.74
2023-01-11T03:07:40.461Z,4.88
2023-01-11T03:08:40.406Z,4.86
2023-01-11T03:09:40.471Z,4.79
2023-01-11T03:10:40.342Z,4.88
2023-01-11T03:11:40.320Z,4.93
2023-01-11T03:12:40.312Z,4.79
2023-01-11T03:13:40.333Z,4.90
2023-01-11T03:14:40.260Z,4.88
2023-01-11T03:15:40.250Z,4.87
2023-01-11T03:16:40.231Z,4.97
2023-01-11T03:17:40.230Z,4.87
2023-01-11T03:18:40.233Z,4.90
2023-01-11T03:19:40.181Z,4.90
2023-01-11T03:20:40.166Z,4.94
2023-01-11T03:21:41.173Z,4.90
2023-01-11T03:22:40.147Z,4.88
2023-01-11T03:23:40.157Z,4.91
2023-01-11T03:24:40.126Z,4.93
2023-01-11T03:25:40.078Z,4.96
2023-01-11T03:26:40.071Z,4.87
2023-01-11T03:27:40.044Z,4.91
2023-01-11T03:28:40.075Z,4.96
2023-01-11T03:29:40.022Z,4.94
2023-01-11T03:30:40.012Z,4.94
2023-01-11T03:31:40.002Z,4.96
2023-01-11T03:32:39.956Z,4.94
2023-01-11T03:33:39.968Z,4.94
2023-01-11T03:34:39.928Z,4.90
2023-01-11T03:35:39.908Z,5.06
2023-01-11T03:36:39.892Z,5.01
2023-01-11T03:37:39.912Z,4.93
2023-01-11T03:38:39.895Z,4.96
2023-01-11T03:39:39.852Z,5.02
2023-01-11T03:40:39.817Z,5.08
2023-01-11T03:41:39.817Z,4.99
2023-01-11T03:42:39.783Z,5.09
2023-01-11T03:43:39.816Z,4.94
2023-01-11T03:44:39.763Z,5.04
2023-01-11T03:45:39.746Z,5.06
2023-01-11T03:46:39.776Z,5.12
2023-01-11T03:47:39.699Z,5.08
2023-01-11T03:48:39.768Z,5.06
2023-01-11T03:49:39.677Z,5.01
2023-01-11T03:50:39.661Z,5.08
2023-01-11T03:51:39.633Z,5.04
2023-01-11T03:52:39.632Z,5.04
2023-01-11T03:53:39.641Z,5.04
2023-01-11T03:54:39.618Z,5.06
2023-01-11T03:55:39.565Z,5.09
2023-01-11T03:56:39.562Z,5.09
2023-01-11T03:57:39.528Z,5.06
2023-01-11T03:58:39.559Z,5.14
2023-01-11T03:59:39.508Z,5.06
2023-01-11T04:00:39.543Z,5.14
2023-01-11T04:01:39.471Z,5.05
2023-01-11T04:02:39.450Z,5.20
2023-01-11T04:03:39.458Z,5.04
2023-01-11T04:04:39.453Z,5.12
2023-01-11T04:05:39.413Z,5.15
2023-01-11T04:06:39.479Z,5.19
2023-01-11T04:07:39.376Z,5.08
2023-01-11T04:08:39.408Z,5.23
2023-01-11T04:09:39.380Z,5.24
2023-01-11T04:10:39.314Z,5.23
2023-01-11T04:11:39.328Z,5.32
2023-01-11T04:12:39.313Z,5.22
2023-01-11T04:13:39.310Z,5.17
2023-01-11T04:14:39.351Z,5.30
2023-01-11T04:15:39.297Z,5.27
2023-01-11T04:16:39.282Z,5.32
2023-01-11T04:17:39.194Z,5.26
2023-01-11T04:18:39.211Z,5.22
2023-01-11T04:19:39.164Z,5.32
2023-01-11T04:20:39.161Z,5.29
2023-01-11T04:21:39.130Z,5.44
2023-01-11T04:22:39.122Z,5.37
2023-01-11T04:23:39.157Z,5.33
2023-01-11T04:24:39.113Z,5.40
2023-01-11T04:25:39.063Z,5.44
2023-01-11T04:26:39.064Z,5.51
2023-01-11T04:27:39.038Z,5.44
2023-01-11T04:28:39.074Z,5.40
2023-01-11T04:29:39.018Z,5.38
2023-01-11T04:30:38.997Z,5.41
2023-01-11T04:31:39.064Z,5.42
2023-01-11T04:32:38.957Z,5.42
2023-01-11T04:33:38.970Z,5.38
2023-01-11T04:34:38.944Z,5.52
2023-01-11T04:35:38.908Z,5.37
2023-01-11T04:36:38.887Z,5.41
2023-01-11T04:37:38.868Z,5.47
2023-01-11T04:38:38.878Z,5.44
2023-01-11T04:39:38.828Z,5.37
2023-01-11T04:40:38.814Z,5.44
2023-01-11T04:41:38.795Z,5.44
2023-01-11T04:42:38.772Z,5.42
2023-01-11T04:43:38.803Z,5.30
2023-01-11T04:44:38.760Z,5.40
2023-01-11T04:45:38.774Z,5.42
2023-01-11T04:46:38.794Z,5.37
2023-01-11T04:47:38.708Z,5.55
2023-01-11T04:48:38.730Z,5.47
2023-01-11T04:49:38.695Z,5.40
2023-01-11T04:51:11.016Z,5.51
2023-01-11T04:51:38.649Z,5.44
2023-01-11T04:52:38.614Z,5.55
2023-01-11T04:53:38.677Z,5.52
2023-01-11T04:54:38.588Z,5.59
2023-01-11T04:55:38.571Z,5.52
2023-01-11T04:56:38.549Z,5.58
2023-01-11T04:57:38.538Z,5.56
2023-01-11T04:58:38.541Z,5.69
2023-01-11T04:59:38.490Z,5.69
2023-01-11T05:00:38.490Z,5.55
2023-01-11T05:01:38.466Z,5.67
2023-01-11T05:02:38.448Z,5.70
2023-01-11T05:03:38.463Z,5.69
2023-01-11T05:04:38.455Z,5.65
2023-01-11T05:05:38.386Z,5.70
2023-01-11T05:06:38.395Z,5.70
2023-01-11T05:07:38.361Z,5.77
2023-01-11T05:08:38.397Z,5.75
2023-01-11T05:09:38.325Z,5.81
2023-01-11T05:10:38.318Z,5.83
2023-01-11T05:11:38.280Z,5.70
2023-01-11T05:12:38.324Z,5.80
2023-01-11T05:13:38.283Z,5.74
2023-01-11T05:14:38.238Z,5.80
2023-01-11T05:15:38.222Z,5.75
2023-01-11T05:16:38.294Z,5.69
2023-01-11T05:17:38.203Z,5.84
2023-01-11T05:18:38.206Z,5.78
2023-01-11T05:19:38.150Z,5.74
2023-01-11T05:20:38.204Z,5.74
2023-01-11T05:21:38.105Z,5.75
2023-01-11T05:22:38.096Z,5.80
2023-01-11T05:23:38.110Z,5.80
2023-01-11T05:24:38.056Z,5.74
2023-01-11T05:25:38.050Z,5.85
2023-01-11T05:26:38.021Z,5.87
2023-01-11T05:27:38.021Z,5.81
2023-01-11T05:28:38.023Z,5.92
2023-01-11T05:29:37.986Z,5.81
2023-01-11T05:30:37.959Z,5.90
2023-01-11T05:31:37.979Z,6.01
2023-01-11T05:32:37.922Z,5.92
2023-01-11T05:33:37.939Z,5.95
2023-01-11T05:34:37.905Z,5.92
2023-01-11T05:35:37.881Z,5.95
2023-01-11T05:36:37.865Z,5.98
2023-01-11T05:37:37.851Z,6.01
2023-01-11T05:38:37.853Z,6.02
2023-01-11T05:39:37.803Z,5.95
2023-01-11T05:40:37.807Z,5.99
2023-01-11T05:41:37.791Z,6.02
2023-01-11T05:42:37.756Z,6.10
2023-01-11T05:43:37.779Z,6.10
2023-01-11T05:44:37.736Z,6.05
2023-01-11T05:45:38.753Z,6.10
2023-01-11T05:46:37.703Z,6.10
2023-01-11T05:47:37.665Z,6.08
2023-01-11T05:48:37.702Z,6.11
2023-01-11T05:49:37.632Z,6.17
2023-01-11T05:50:37.634Z,6.13
2023-01-11T05:51:37.593Z,6.14
2023-01-11T05:52:37.593Z,6.11
2023-01-11T05:53:37.625Z,6.20
2023-01-11T05:54:37.547Z,6.25
2023-01-11T05:55:37.546Z,6.13
2023-01-11T05:56:37.521Z,6.24
2023-01-11T05:57:37.508Z,6.24
2023-01-11T05:58:37.482Z,6.25
2023-01-11T05:59:37.487Z,6.16
2023-01-11T06:00:37.445Z,6.33
2023-01-11T06:01:37.434Z,6.43
2023-01-11T06:02:37.564Z,6.30
2023-01-11T06:03:37.411Z,6.36
2023-01-11T06:04:37.460Z,6.39
2023-01-11T06:05:37.376Z,6.38
2023-01-11T06:06:37.418Z,6.53
2023-01-11T06:07:37.371Z,6.38
2023-01-11T06:08:37.313Z,6.48
2023-01-11T06:09:37.346Z,6.50
2023-01-11T06:10:37.295Z,6.53
2023-01-11T06:11:37.272Z,6.45
2023-01-11T06:12:37.250Z,6.46
2023-01-11T06:13:37.252Z,6.58
2023-01-11T06:14:38.300Z,6.55
2023-01-11T06:15:38.190Z,6.51
2023-01-11T06:16:37.207Z,6.51
2023-01-11T06:17:37.177Z,6.50
2023-01-11T06:18:37.149Z,6.64
2023-01-11T06:19:37.151Z,6.61
2023-01-11T06:20:37.109Z,6.57
2023-01-11T06:21:37.127Z,6.68
2023-01-11T06:22:37.072Z,6.61
2023-01-11T06:23:37.050Z,6.61
2023-01-11T06:24:37.095Z,6.68
2023-01-11T06:25:37.061Z,6.64
2023-01-11T06:26:37.015Z,6.63
2023-01-11T06:27:36.990Z,6.55
2023-01-11T06:28:37.012Z,6.71
2023-01-11T06:29:37.007Z,6.71
2023-01-11T06:30:36.968Z,6.64
2023-01-11T06:31:36.935Z,6.65
2023-01-11T06:32:36.900Z,6.64
2023-01-11T06:33:36.917Z,6.60
2023-01-11T06:34:36.907Z,6.72
2023-01-11T06:35:36.845Z,6.61
2023-01-11T06:36:36.832Z,6.72
2023-01-11T06:37:36.827Z,6.68
2023-01-11T06:38:36.864Z,6.69
2023-01-11T06:39:36.824Z,6.64
2023-01-11T06:40:36.782Z,6.78
2023-01-11T06:41:36.749Z,6.75
2023-01-11T06:42:36.740Z,6.60
2023-01-11T06:43:36.727Z,6.72
2023-01-11T06:44:36.806Z,6.69
2023-01-11T06:45:36.690Z,6.63
2023-01-11T06:46:36.710Z,6.73
2023-01-11T06:47:36.647Z,6.75
2023-01-11T06:48:36.656Z,6.72
2023-01-11T06:49:36.649Z,6.64
2023-01-11T06:50:36.610Z,6.73
2023-01-11T06:51:36.581Z,6.65
2023-01-11T06:52:36.563Z,6.75
2023-01-11T06:53:36.556Z,6.71
2023-01-11T06:54:36.604Z,6.63
2023-01-11T06:55:36.513Z,6.76
2023-01-11T06:56:36.505Z,6.61
2023-01-11T06:57:36.483Z,6.75
2023-01-11T06:58:36.455Z,6.81
2023-01-11T06:59:36.475Z,6.78
2023-01-11T07:00:36.434Z,6.81
2023-01-11T07:01:36.463Z,6.79
2023-01-11T07:02:36.415Z,6.79
2023-01-11T07:03:36.413Z,6.76
2023-01-11T07:04:36.437Z,6.73
2023-01-11T07:05:36.455Z,6.87
2023-01-11T07:06:36.320Z,6.81
2023-01-11T07:07:36.324Z,6.79
2023-01-11T07:08:36.321Z,6.91
2023-01-11T07:09:36.327Z,6.86
2023-01-11T07:10:36.356Z,6.93
2023-01-11T07:11:36.246Z,6.91
2023-01-11T07:12:36.248Z,6.93
2023-01-11T07:13:36.202Z,6.91
2023-01-11T07:14:36.229Z,7.04
2023-01-11T07:15:36.219Z,6.91
2023-01-11T07:16:36.156Z,6.83
2023-01-11T07:17:36.170Z,6.93
2023-01-11T07:18:36.122Z,6.97
2023-01-11T07:19:36.147Z,6.99
2023-01-11T07:20:36.085Z,6.96
2023-01-11T07:21:36.079Z,7.04
2023-01-11T07:22:36.065Z,6.96
2023-01-11T07:23:36.084Z,6.93
2023-01-11T07:24:36.066Z,7.00
2023-01-11T07:25:36.018Z,7.00
2023-01-11T07:26:35.992Z,6.97
2023-01-11T07:27:35.975Z,7.07
2023-01-11T07:28:36.011Z,7.19
2023-01-11T07:29:36.002Z,7.05
2023-01-11T07:30:51.922Z,7.04
2023-01-11T07:31:38.019Z,7.05
2023-01-11T07:32:35.893Z,7.04
2023-01-11T07:33:35.874Z,7.04
2023-01-11T07:34:35.926Z,7.15
2023-01-11T07:35:35.841Z,7.12
2023-01-11T07:36:35.883Z,7.05
2023-01-11T07:37:35.818Z,7.15
2023-01-11T07:38:35.811Z,7.15
2023-01-11T07:39:43.191Z,7.15
2023-01-11T07:40:37.775Z,7.12
2023-01-11T07:41:35.735Z,7.16
2023-01-11T07:42:35.722Z,7.12
2023-01-11T07:43:35.722Z,7.15
2023-01-11T07:44:35.932Z,7.27
2023-01-11T07:45:45.287Z,7.23
2023-01-11T07:46:37.758Z,7.23
2023-01-11T07:47:35.678Z,7.21
2023-01-11T07:48:35.628Z,7.27
2023-01-11T07:49:35.639Z,7.15
2023-01-11T07:50:35.601Z,7.16
2023-01-11T07:51:35.586Z,7.21
2023-01-11T07:52:35.576Z,7.16
2023-01-11T07:53:35.546Z,7.12
2023-01-11T07:54:35.622Z,7.16
2023-01-11T07:55:35.520Z,7.24
2023-01-11T07:56:35.495Z,7.18
2023-01-11T07:57:35.471Z,7.19
2023-01-11T07:58:35.529Z,7.26
2023-01-11T07:59:35.478Z,7.26
2023-01-11T08:00:35.443Z,7.33
2023-01-11T08:01:35.409Z,7.29
2023-01-11T08:02:35.524Z,7.27
2023-01-11T08:03:35.486Z,7.32
2023-01-11T08:04:35.407Z,7.24
2023-01-11T08:05:35.339Z,7.27
2023-01-11T08:06:35.338Z,7.24
2023-01-11T08:07:35.306Z,7.27
2023-01-11T08:08:35.299Z,7.32
2023-01-11T08:09:35.303Z,7.33
2023-01-11T08:10:35.254Z,7.30
2023-01-11T08:11:35.232Z,7.41
2023-01-11T08:12:35.212Z,7.37
2023-01-11T08:13:35.216Z,7.42
2023-01-11T08:14:35.233Z,7.47
2023-01-11T08:15:35.200Z,7.50
2023-01-11T08:16:35.195Z,7.50
2023-01-11T08:17:35.140Z,7.47
2023-01-11T08:18:35.177Z,7.51
2023-01-11T08:19:35.155Z,7.55
2023-01-11T08:20:35.079Z,7.50
2023-01-11T08:21:35.085Z,7.42
2023-01-11T08:22:35.091Z,7.51
2023-01-11T08:23:35.080Z,7.57
2023-01-11T08:24:35.043Z,7.58
2023-01-11T08:25:35.002Z,7.58
2023-01-11T08:26:36.030Z,7.66
2023-01-11T08:27:34.973Z,7.66
2023-01-11T08:28:34.934Z,7.70
2023-01-11T08:29:34.972Z,7.58
2023-01-11T08:30:34.944Z,7.71
2023-01-11T08:31:34.894Z,7.67
2023-01-11T08:32:34.892Z,7.60
2023-01-11T08:33:34.870Z,7.57
2023-01-11T08:34:34.866Z,7.60
2023-01-11T08:35:34.823Z,7.51
2023-01-11T08:36:34.815Z,7.58
2023-01-11T08:37:34.784Z,7.51
2023-01-11T08:38:34.785Z,7.60
2023-01-11T08:39:34.779Z,7.70
2023-01-11T08:40:34.746Z,7.66
2023-01-11T08:41:34.726Z,7.73
2023-01-11T08:42:34.711Z,7.63
2023-01-11T08:43:34.696Z,7.71
2023-01-11T08:44:35.139Z,7.73
2023-01-11T08:45:34.689Z,7.76
2023-01-11T08:46:34.672Z,7.79
2023-01-11T08:47:34.637Z,7.76
2023-01-11T08:48:34.666Z,7.85
2023-01-11T08:49:34.620Z,7.86
2023-01-11T08:50:34.570Z,7.89
2023-01-11T08:51:34.559Z,7.85
2023-01-11T08:52:34.534Z,7.79
2023-01-11T08:53:34.535Z,7.81
2023-01-11T08:54:34.528Z,7.88
2023-01-11T08:55:34.488Z,7.81
2023-01-11T08:56:34.465Z,7.88
2023-01-11T08:57:34.453Z,7.79
2023-01-11T08:58:34.430Z,7.81
2023-01-11T08:59:34.471Z,7.85
2023-01-11T09:00:34.453Z,7.89
2023-01-11T09:01:34.441Z,7.88
2023-01-11T09:02:34.418Z,7.94
2023-01-11T09:03:34.343Z,8.02
2023-01-11T09:04:34.393Z,8.02
2023-01-11T09:05:34.316Z,8.12
2023-01-11T09:06:35.547Z,8.06
2023-01-11T09:07:34.280Z,8.06
2023-01-11T09:08:34.280Z,7.99
2023-01-11T09:09:34.324Z,8.06
2023-01-11T09:10:34.237Z,7.99
2023-01-11T09:11:34.214Z,8.06
2023-01-11T09:12:34.217Z,8.06
2023-01-11T09:13:34.171Z,8.06
2023-01-11T09:14:34.218Z,8.09
2023-01-11T09:15:34.159Z,8.03
2023-01-11T09:16:34.136Z,8.09
2023-01-11T09:17:34.115Z,8.09
2023-01-11T09:18:34.093Z,8.09
2023-01-11T09:19:34.103Z,8.06
2023-01-11T09:20:34.099Z,8.10
2023-01-11T09:21:34.051Z,8.03
2023-01-11T09:22:34.022Z,7.96
2023-01-11T09:23:34.015Z,8.10
2023-01-11T09:24:34.034Z,8.09
2023-01-11T09:25:33.995Z,8.09
2023-01-11T09:26:33.999Z,8.03
2023-01-11T09:27:33.939Z,8.13
2023-01-11T09:28:33.932Z,8.21
2023-01-11T09:29:37.035Z,8.02
2023-01-11T09:30:34.943Z,8.06
2023-01-11T09:31:33.964Z,8.12
2023-01-11T09:32:33.866Z,8.17
2023-01-11T09:33:33.836Z,8.14
2023-01-11T09:34:33.828Z,8.10
2023-01-11T09:35:33.852Z,8.18
2023-01-11T09:36:33.794Z,8.20
2023-01-11T09:37:33.770Z,8.17
2023-01-11T09:38:33.791Z,8.18
2023-01-11T09:39:33.759Z,8.18
2023-01-11T09:40:33.768Z,8.10
2023-01-11T09:41:33.719Z,8.10
2023-01-11T09:42:33.694Z,8.04
2023-01-11T09:43:33.691Z,8.13
2023-01-11T09:44:33.661Z,8.17
2023-01-11T09:45:33.706Z,8.18
2023-01-11T09:46:33.673Z,8.21
2023-01-11T09:47:33.620Z,8.24
2023-01-11T09:48:33.584Z,8.24
2023-01-11T09:49:33.582Z,8.22
2023-01-11T09:50:33.582Z,8.20
2023-01-11T09:51:33.531Z,8.12
2023-01-11T09:52:33.512Z,8.20
2023-01-11T09:53:33.498Z,8.10
2023-01-11T09:54:33.490Z,8.20
2023-01-11T09:55:33.560Z,8.25
2023-01-11T09:56:33.473Z,8.20
2023-01-11T09:57:33.481Z,8.25
2023-01-11T09:58:33.429Z,8.25
2023-01-11T09:59:33.405Z,8.36
2023-01-11T10:00:33.478Z,8.31
2023-01-11T10:01:33.393Z,8.28
2023-01-11T10:02:33.378Z,8.29
2023-01-11T10:03:33.347Z,8.37
2023-01-11T10:04:33.415Z,8.28
2023-01-11T10:05:33.349Z,8.28
2023-01-11T10:06:33.285Z,8.31
2023-01-11T10:07:33.262Z,8.42
2023-01-11T10:18:26.287Z,8.25
2023-01-11T10:18:27.201Z,8.24
2023-01-11T10:18:33.480Z,8.21
2023-01-11T10:18:33.919Z,8.21
2023-01-11T10:18:53.324Z,8.13
2023-01-11T10:19:40.291Z,8.18
2023-01-11T10:20:35.140Z,8.21
2023-01-11T10:21:33.040Z,8.25
2023-01-11T10:22:33.127Z,8.24
2023-01-11T10:23:33.021Z,8.28
2023-01-11T10:24:32.997Z,8.27
2023-01-11T10:25:33.014Z,8.28
2023-01-11T10:26:32.972Z,8.24
2023-01-11T10:27:33.027Z,8.25
2023-01-11T10:28:32.968Z,8.39
2023-01-11T10:29:32.899Z,8.25
2023-01-11T10:30:32.944Z,8.24
2023-01-11T10:31:32.929Z,8.27
2023-01-11T10:32:32.848Z,8.29
2023-01-11T10:33:32.832Z,8.29
2023-01-11T10:34:32.817Z,8.27
2023-01-11T10:35:32.826Z,8.32
2023-01-11T10:36:32.780Z,8.39
2023-01-11T10:37:32.778Z,8.34
2023-01-11T10:38:32.745Z,8.27
2023-01-11T10:39:32.735Z,8.21
2023-01-11T10:40:32.754Z,8.21
2023-01-11T10:41:32.705Z,8.25
2023-01-11T10:42:32.681Z,8.27
2023-01-11T10:43:32.681Z,8.31
2023-01-11T10:44:32.652Z,8.37
2023-01-11T10:45:32.704Z,8.32
2023-01-11T10:46:32.614Z,8.39
2023-01-11T10:47:32.601Z,8.40
2023-01-11T10:48:32.576Z,8.39
2023-01-11T10:49:34.479Z,8.40
2023-01-11T10:50:32.568Z,8.49
2023-01-11T10:51:32.519Z,8.55
2023-01-11T10:53:04.961Z,8.54
2023-01-11T10:53:32.528Z,8.57
2023-01-11T10:54:32.536Z,8.55
2023-01-11T10:56:32.453Z,8.49
2023-01-11T10:57:32.524Z,8.49
2023-01-11T10:58:32.451Z,8.63
2023-01-11T10:59:32.392Z,8.60
2023-01-11T11:00:32.438Z,8.49
2023-01-11T11:01:32.364Z,8.57
2023-01-11T11:02:32.370Z,8.61
2023-01-11T11:03:32.392Z,8.60
2023-01-11T11:04:32.307Z,8.57
2023-01-11T11:05:32.415Z,8.64
2023-01-11T11:06:32.302Z,8.71
2023-01-11T11:07:32.331Z,8.71
2023-01-11T11:08:32.234Z,8.85
2023-01-11T11:09:32.367Z,8.79
2023-01-11T11:10:32.235Z,8.76
2023-01-11T11:11:32.212Z,8.78
2023-01-11T11:12:32.168Z,8.80
2023-01-11T11:13:32.151Z,8.67
2023-01-11T11:14:32.163Z,8.76
2023-01-11T11:15:32.222Z,8.64
2023-01-11T11:16:32.295Z,8.70
2023-01-11T11:17:32.192Z,8.61
2023-01-11T11:18:32.070Z,8.70
2023-01-11T11:19:32.068Z,8.67
2023-01-11T11:20:32.114Z,8.75
2023-01-11T11:21:32.032Z,8.70
2023-01-11T11:22:32.012Z,8.73
2023-01-11T11:23:32.069Z,8.70
2023-01-11T11:24:31.980Z,8.67
2023-01-11T11:25:32.030Z,8.71
2023-01-11T11:26:32.132Z,8.60
2023-01-11T11:27:32.008Z,8.75
2023-01-11T11:28:31.904Z,8.78
2023-01-11T11:29:32.189Z,8.73
2023-01-11T11:30:32.109Z,8.73
2023-01-11T11:31:32.245Z,8.75
2023-01-11T11:32:31.849Z,8.79
2023-01-11T11:33:31.832Z,8.75
2023-01-11T11:34:31.808Z,8.76
2023-01-11T11:35:32.004Z,8.86
2023-01-11T11:36:31.777Z,8.82
2023-01-11T11:37:31.774Z,8.88
2023-01-11T11:38:31.741Z,8.89
2023-01-11T11:39:31.735Z,8.82
2023-01-11T11:40:31.732Z,8.79
2023-01-11T11:41:31.755Z,8.79
2023-01-11T11:42:31.729Z,8.80
2023-01-11T11:43:31.654Z,8.76
2023-01-11T11:44:31.644Z,8.83
2023-01-11T11:45:31.672Z,8.89
2023-01-11T11:46:31.766Z,8.86
2023-01-11T11:47:31.588Z,8.93
2023-01-11T11:48:31.577Z,8.83
2023-01-11T11:49:31.608Z,8.85
2023-01-11T11:50:44.335Z,8.93
2023-01-11T11:51:33.528Z,8.82
2023-01-11T11:52:31.504Z,8.76
2023-01-11T11:53:31.499Z,8.89
2023-01-11T11:54:31.509Z,8.82
2023-01-11T11:55:31.500Z,8.85
2023-01-11T11:56:31.548Z,8.83
2023-01-11T11:57:31.426Z,8.86
2023-01-11T11:58:31.498Z,8.91
2023-01-11T11:59:31.407Z,8.89
2023-01-11T12:00:31.411Z,8.96
2023-01-11T12:01:31.393Z,8.88
2023-01-11T12:02:31.426Z,8.94
2023-01-11T12:03:31.441Z,8.89
2023-01-11T12:04:31.307Z,8.86
2023-01-11T12:05:31.315Z,8.89
2023-01-11T12:06:31.294Z,8.93
2023-01-11T12:07:31.512Z,8.96
2023-01-11T12:08:31.238Z,9.01
2023-01-11T12:09:31.387Z,8.98
2023-01-11T12:10:31.196Z,9.04
2023-01-11T12:11:31.371Z,9.00
2023-01-11T12:12:31.239Z,8.91
2023-01-11T12:13:31.153Z,8.89
2023-01-11T12:14:31.146Z,8.94
2023-01-11T12:15:31.117Z,8.96
2023-01-11T12:16:31.214Z,8.83
2023-01-11T12:17:31.115Z,8.75
2023-01-11T12:18:31.088Z,8.73
2023-01-11T12:19:31.043Z,8.86
2023-01-11T12:20:31.084Z,8.73
2023-01-11T12:21:31.069Z,8.80
2023-01-11T12:22:30.994Z,8.71
2023-01-11T12:23:31.169Z,8.79
2023-01-11T12:24:31.003Z,8.76
2023-01-11T12:25:30.937Z,8.79
2023-01-11T12:26:31.104Z,8.78
2023-01-11T12:27:30.941Z,8.86
2023-01-11T12:28:31.109Z,8.80
2023-01-11T12:29:30.939Z,8.86
2023-01-11T12:30:30.883Z,8.93
2023-01-11T12:31:30.870Z,8.83
2023-01-11T12:32:30.933Z,8.93
2023-01-11T12:33:30.917Z,8.79
2023-01-11T12:34:30.858Z,8.85
2023-01-11T12:35:30.828Z,8.86
2023-01-11T12:36:30.785Z,8.93
2023-01-11T12:37:30.856Z,8.91
2023-01-11T12:38:31.009Z,8.96
2023-01-11T12:39:30.807Z,8.93
2023-01-11T12:40:30.688Z,8.83
2023-01-11T12:41:30.773Z,8.89
2023-01-11T12:42:30.966Z,8.83
2023-01-11T12:43:30.853Z,8.89
2023-01-11T12:44:30.624Z,8.89
2023-01-11T12:45:30.790Z,8.86
2023-01-11T12:46:30.619Z,8.93
2023-01-11T12:47:30.748Z,8.96
2023-01-11T12:48:30.565Z,9.01
2023-01-11T12:49:30.549Z,8.96
2023-01-11T12:50:31.627Z,8.96
2023-01-11T12:51:30.810Z,8.96
2023-01-11T12:52:30.525Z,8.94
2023-01-11T12:53:30.531Z,8.88
2023-01-11T12:54:30.501Z,8.94
2023-01-11T12:55:30.488Z,8.79
2023-01-11T12:56:30.463Z,8.83
2023-01-11T12:57:30.492Z,8.88
2023-01-11T12:58:30.401Z,8.94
2023-01-11T12:59:31.443Z,8.88
2023-01-11T13:00:30.374Z,8.91
2023-01-11T13:01:30.644Z,8.93
2023-01-11T13:02:30.399Z,8.96
2023-01-11T13:03:30.349Z,8.85
2023-01-11T13:04:30.321Z,8.82
2023-01-11T13:05:30.307Z,8.82
2023-01-11T13:06:30.317Z,8.83
2023-01-11T13:07:30.230Z,8.83
2023-01-11T13:08:30.210Z,8.93
2023-01-11T13:09:30.194Z,8.83
2023-01-11T13:10:30.188Z,8.83
2023-01-11T13:11:30.257Z,8.82
2023-01-11T13:12:30.167Z,8.80
2023-01-11T13:13:30.204Z,8.71
2023-01-11T13:14:30.246Z,8.75
2023-01-11T13:15:30.501Z,8.80
2023-01-11T13:16:30.408Z,8.86
2023-01-11T13:17:30.108Z,8.86
2023-01-11T13:18:30.062Z,8.98
2023-01-11T13:19:30.079Z,8.94
2023-01-11T13:20:30.919Z,8.88
2023-01-11T13:21:30.164Z,8.98
2023-01-11T13:22:30.054Z,9.08
2023-01-11T13:23:29.975Z,9.06
2023-01-11T13:24:29.939Z,9.00
2023-01-11T13:25:29.973Z,9.08